createdAt,value
2023-04-14T03:01:39.869Z,7.60
2023-04-14T03:04:07.934Z,4.27
2023-04-14T03:06:38.578Z,5.50
2023-04-14T03:09:07.047Z,5.83
2023-04-14T03:11:36.822Z,7.07
2023-04-14T03:14:05.899Z,6.97
2023-04-14T03:16:35.169Z,5.47
2023-04-14T03:19:04.515Z,7.43
2023-04-14T03:21:35.860Z,4.10
2023-04-14T03:24:03.635Z,4.37
2023-04-14T03:26:33.148Z,6.10
2023-04-14T03:29:03.600Z,4.37
2023-04-14T03:31:33.845Z,5.60
2023-04-14T03:34:05.852Z,4.00
2023-04-14T03:36:37.175Z,6.23
2023-04-14T03:39:06.013Z,4.90
2023-04-14T03:41:38.646Z,6.07
2023-04-14T03:44:10.757Z,4.73
2023-04-14T03:46:37.740Z,4.13
2023-04-14T03:49:11.106Z,6.73
2023-04-14T03:51:40.087Z,4.17
2023-04-14T03:54:10.130Z,5.07
2023-04-14T03:56:41.109Z,3.13
2023-04-14T03:59:13.209Z,3.60
2023-04-14T04:01:42.750Z,3.93
2023-04-14T04:04:11.805Z,4.70
2023-04-14T04:06:40.844Z,3.47
2023-04-14T04:09:09.322Z,5.13
2023-04-14T04:11:39.621Z,5.50
2023-04-14T04:14:07.666Z,5.00
2023-04-14T04:16:40.321Z,5.83
2023-04-14T04:19:07.678Z,4.70
2023-04-14T04:21:42.325Z,5.60
2023-04-14T04:24:11.274Z,5.07
2023-04-14T04:26:40.060Z,4.70
2023-04-14T04:29:07.544Z,5.63
2023-04-14T04:31:34.745Z,4.97
2023-04-14T04:34:03.319Z,6.83
2023-04-14T04:36:33.628Z,4.93
2023-04-14T04:39:02.284Z,5.83
2023-04-14T04:41:33.047Z,7.13
2023-04-14T04:44:02.314Z,7.17
2023-04-14T04:46:46.272Z,6.00
2023-04-14T04:49:15.283Z,4.27
2023-04-14T04:51:43.208Z,8.63
2023-04-14T04:54:11.714Z,5.57
2023-04-14T04:56:38.576Z,5.07
2023-04-14T04:59:05.817Z,5.00
2023-04-14T05:01:32.999Z,7.10
2023-04-14T05:04:00.040Z,7.77
2023-04-14T05:06:28.126Z,7.27
2023-04-14T05:08:56.113Z,7.23
2023-04-14T05:11:24.809Z,6.17
2023-04-14T05:13:51.718Z,5.67
2023-04-14T05:16:19.711Z,6.07
2023-04-14T05:18:46.642Z,6.57
2023-04-14T05:21:14.579Z,5.93
2023-04-14T05:23:43.538Z,9.70
2023-04-14T05:28:44.177Z,7.37
2023-04-14T05:31:11.232Z,8.23
2023-04-14T05:33:38.757Z,5.57
2023-04-14T05:36:06.017Z,10.67
2023-04-14T05:38:32.940Z,7.60
2023-04-14T05:40:59.972Z,7.20
2023-04-14T05:43:27.081Z,6.07
2023-04-14T05:45:58.211Z,8.33
2023-04-14T05:48:28.014Z,6.47
2023-04-14T05:50:54.893Z,8.00
2023-04-14T05:53:21.908Z,7.47
2023-04-14T05:55:51.518Z,10.43
2023-04-14T05:58:18.424Z,6.83
2023-04-14T06:00:45.346Z,8.47
2023-04-14T06:03:13.958Z,9.53
2023-04-14T06:05:40.986Z,6.30
2023-04-14T06:08:07.870Z,10.73
2023-04-14T06:10:35.843Z,11.03
2023-04-14T06:13:02.769Z,8.70
2023-04-14T06:15:29.808Z,6.63
2023-04-14T06:17:56.926Z,8.37
2023-04-14T06:20:25.765Z,5.37
2023-04-14T06:22:52.814Z,7.10
2023-04-14T06:25:19.767Z,4.80
2023-04-14T06:27:46.688Z,3.73
2023-04-14T06:30:16.738Z,8.67
2023-04-14T06:32:43.794Z,6.20
2023-04-14T06:35:19.113Z,6.20
2023-04-14T06:37:54.138Z,6.17
2023-04-14T06:40:21.139Z,6.63
2023-04-14T06:42:48.077Z,3.70
2023-04-14T06:45:15.136Z,5.00
2023-04-14T06:47:42.431Z,5.63
2023-04-14T06:50:10.110Z,4.37
2023-04-14T06:52:36.965Z,7.07
2023-04-14T06:55:05.861Z,4.50
2023-04-14T06:57:32.752Z,6.20
2023-04-14T06:59:59.671Z,4.50
2023-04-14T07:02:28.660Z,5.10
2023-04-14T07:04:55.951Z,6.13
2023-04-14T07:07:24.315Z,3.63
2023-04-14T07:09:51.831Z,5.17
2023-04-14T07:12:20.275Z,4.67
2023-04-14T07:14:52.001Z,4.60
2023-04-14T07:17:19.148Z,4.10
2023-04-14T07:19:46.212Z,4.97
2023-04-14T07:22:13.150Z,5.87
2023-04-14T07:24:40.477Z,4.87
2023-04-14T07:27:07.481Z,6.17
2023-04-14T07:29:36.154Z,5.33
2023-04-14T07:32:03.135Z,4.80
2023-04-14T07:34:30.069Z,4.13
2023-04-14T07:36:57.030Z,8.10
2023-04-14T07:39:24.443Z,4.73
2023-04-14T07:41:51.324Z,6.80
2023-04-14T07:44:18.326Z,5.03
2023-04-14T07:46:46.596Z,4.20
2023-04-14T07:49:13.479Z,5.37
2023-04-14T07:51:40.310Z,4.37
2023-04-14T07:54:07.465Z,3.03
2023-04-14T07:56:34.361Z,4.77
2023-04-14T07:59:01.469Z,4.57
2023-04-14T08:01:28.644Z,3.77
2023-04-14T08:03:57.029Z,4.87
2023-04-14T08:06:24.241Z,5.47
2023-04-14T08:08:51.712Z,6.73
2023-04-14T08:11:18.526Z,5.60
2023-04-14T08:13:46.412Z,5.37
2023-04-14T08:16:13.375Z,5.20
2023-04-14T08:18:40.798Z,6.23
2023-04-14T08:21:09.544Z,6.50
2023-04-14T08:23:36.755Z,5.40
2023-04-14T08:26:04.500Z,8.07
2023-04-14T08:28:31.422Z,5.07
2023-04-14T08:30:58.488Z,5.87
2023-04-14T08:33:25.515Z,5.03
2023-04-14T08:35:58.421Z,5.03
2023-04-14T08:38:28.674Z,6.13
2023-04-14T08:40:56.539Z,7.33
2023-04-14T08:43:23.953Z,4.87
2023-04-14T08:45:51.812Z,4.20
2023-04-14T08:48:20.621Z,5.53
2023-04-14T08:50:59.340Z,7.60
2023-04-14T08:53:29.318Z,4.37
2023-04-14T08:55:58.621Z,5.47
2023-04-14T08:58:26.227Z,5.97
2023-04-14T09:00:54.082Z,5.10
2023-04-14T09:03:21.897Z,5.87
2023-04-14T09:05:49.124Z,4.93
2023-04-14T09:08:16.862Z,4.73
2023-04-14T09:10:45.775Z,4.50
2023-04-14T09:13:15.232Z,7.00
2023-04-14T09:15:42.689Z,5.40
2023-04-14T09:18:10.559Z,5.07
2023-04-14T09:20:40.854Z,4.83
2023-04-14T09:23:10.169Z,4.03
2023-04-14T09:25:38.441Z,4.35
2023-04-14T09:28:06.855Z,5.53
2023-04-14T09:30:33.896Z,4.78
2023-04-14T09:33:05.113Z,4.07
2023-04-14T09:35:46.018Z,5.13
2023-04-14T09:38:13.009Z,4.35
2023-04-14T09:40:42.660Z,5.25
2023-04-14T09:43:23.980Z,4.85
2023-04-14T09:45:51.220Z,3.88
2023-04-14T09:48:18.431Z,8.15
2023-04-14T09:51:01.636Z,5.55
2023-04-14T09:53:30.153Z,4.97
2023-04-14T09:55:57.727Z,4.55
2023-04-14T09:58:29.964Z,4.78
2023-04-14T10:00:59.388Z,3.60
2023-04-14T10:03:37.411Z,4.40
2023-04-14T10:06:07.329Z,5.22
2023-04-14T10:08:36.080Z,5.28
2023-04-14T10:11:18.056Z,3.55
2023-04-14T10:13:47.312Z,4.22
2023-04-14T10:16:14.945Z,6.25
2023-04-14T10:18:42.480Z,3.58
2023-04-14T10:21:10.317Z,3.60
2023-04-14T10:23:39.167Z,2.42
2023-04-14T10:26:07.276Z,4.22
2023-04-14T10:28:35.581Z,5.65
2023-04-14T10:31:08.207Z,3.97
2023-04-14T10:33:38.111Z,3.47
2023-04-14T10:36:05.320Z,3.75
2023-04-14T10:38:39.880Z,3.83
2023-04-14T10:41:07.695Z,5.25
2023-04-14T10:43:36.629Z,3.90
2023-04-14T10:46:06.065Z,5.18
2023-04-14T10:48:34.473Z,4.45
2023-04-14T10:51:04.281Z,4.57
2023-04-14T10:53:37.796Z,4.07
2023-04-14T10:56:06.179Z,3.87
2023-04-14T10:58:36.541Z,3.93
2023-04-14T11:01:25.880Z,3.50
2023-04-14T11:03:54.568Z,4.07
2023-04-14T11:06:51.334Z,3.43
2023-04-14T11:09:33.932Z,3.60
2023-04-14T11:12:06.155Z,4.63
2023-04-14T11:14:35.290Z,4.33
2023-04-14T11:17:05.146Z,3.20
2023-04-14T11:19:32.748Z,4.47
2023-04-14T11:21:59.664Z,3.37
2023-04-14T11:24:26.766Z,2.60
2023-04-14T11:26:54.638Z,3.10
2023-04-14T11:29:21.768Z,4.40
2023-04-14T11:32:05.584Z,3.97
2023-04-14T11:34:34.419Z,3.30
2023-04-14T11:37:06.626Z,4.20
2023-04-14T11:39:35.582Z,4.10
2023-04-14T11:42:04.164Z,4.13
2023-04-14T11:44:31.874Z,3.67
2023-04-14T11:46:58.834Z,3.70
2023-04-14T11:49:37.712Z,4.80
2023-04-14T11:52:06.175Z,4.33
2023-04-14T11:54:37.197Z,4.63
2023-04-14T11:57:09.937Z,3.77
2023-04-14T11:59:42.122Z,3.33
2023-04-14T12:02:16.104Z,2.97
2023-04-14T12:04:45.723Z,4.43
2023-04-14T12:07:13.914Z,3.57
2023-04-14T12:09:43.493Z,3.40
2023-04-14T12:12:12.034Z,2.60
2023-04-14T12:14:40.452Z,3.13
2023-04-14T12:17:07.864Z,4.07
2023-04-14T12:19:35.186Z,4.40
2023-04-14T12:22:03.575Z,3.83
2023-04-14T12:24:37.811Z,2.40
2023-04-14T12:27:06.278Z,3.00
2023-04-14T12:29:34.640Z,1.77
2023-04-14T12:32:02.615Z,4.37
2023-04-14T12:34:29.863Z,3.70
2023-04-14T12:36:56.915Z,3.30
2023-04-14T12:39:27.498Z,2.00
2023-04-14T12:41:57.630Z,2.90
2023-04-14T12:44:25.059Z,3.23
2023-04-14T12:46:53.801Z,2.70
2023-04-14T12:49:36.131Z,3.37
2023-04-14T12:52:04.584Z,3.63
2023-04-14T12:54:51.718Z,3.70
2023-04-14T12:57:20.649Z,2.40
2023-04-14T12:59:47.570Z,3.73
2023-04-14T13:02:15.299Z,3.87
2023-04-14T13:04:42.382Z,3.90
2023-04-14T13:07:09.234Z,3.10
2023-04-14T13:09:36.190Z,4.93
2023-04-14T13:12:04.641Z,3.67
2023-04-14T13:14:31.674Z,3.67
2023-04-14T13:16:58.623Z,3.97
2023-04-14T13:19:25.664Z,3.60
2023-04-14T13:21:52.558Z,3.07
2023-04-14T13:24:19.455Z,5.43
2023-04-14T13:26:46.416Z,4.00
2023-04-14T13:29:14.683Z,3.30
2023-04-14T13:31:41.687Z,3.33
2023-04-14T13:34:08.665Z,4.23
2023-04-14T13:36:35.543Z,2.90
2023-04-14T13:39:03.699Z,3.00
2023-04-14T13:41:30.991Z,3.23
2023-04-14T13:43:58.216Z,5.00
2023-04-14T13:46:26.483Z,3.33
2023-04-14T13:48:54.648Z,3.87
2023-04-14T13:51:26.391Z,3.40
2023-04-14T13:53:55.898Z,2.23
2023-04-14T13:56:25.391Z,2.60
2023-04-14T13:58:53.116Z,3.40
2023-04-14T14:01:20.434Z,3.37
2023-04-14T14:03:50.553Z,2.90
2023-04-14T14:06:18.893Z,2.47
2023-04-14T14:08:46.409Z,2.97
2023-04-14T14:11:14.035Z,3.07
2023-04-14T14:13:41.102Z,3.17
2023-04-14T14:16:08.822Z,2.30
2023-04-14T14:18:37.369Z,3.77
2023-04-14T14:21:06.052Z,3.30
2023-04-14T14:23:32.928Z,3.40
2023-04-14T14:26:00.859Z,3.10
2023-04-14T14:28:28.142Z,3.30
2023-04-14T14:30:55.843Z,2.67
2023-04-14T14:33:22.713Z,2.80
2023-04-14T14:35:49.801Z,2.13
2023-04-14T14:38:18.009Z,3.60
2023-04-14T14:40:44.881Z,3.80
2023-04-14T14:43:11.789Z,3.90
2023-04-14T14:45:38.730Z,2.20
2023-04-14T14:48:06.383Z,3.83
2023-04-14T14:50:33.341Z,2.97
2023-04-14T14:53:00.282Z,2.87
2023-04-14T14:55:28.540Z,1.80
2023-04-14T14:57:55.452Z,3.57
2023-04-14T15:00:22.516Z,2.80
2023-04-14T15:02:49.703Z,2.70
2023-04-14T15:05:16.958Z,3.30
2023-04-14T15:07:44.856Z,1.57
2023-04-14T15:10:11.816Z,3.83
2023-04-14T15:12:40.001Z,2.53
2023-04-14T15:15:07.886Z,4.23
2023-04-14T15:17:35.036Z,4.67
2023-04-14T15:20:04.551Z,2.60
2023-04-14T15:22:32.119Z,2.37
2023-04-14T15:24:59.135Z,2.80
2023-04-14T15:27:26.817Z,3.20
2023-04-14T15:29:55.261Z,3.57
2023-04-14T15:32:25.288Z,3.67
2023-04-14T15:34:53.053Z,2.47
2023-04-14T15:37:19.992Z,3.57
2023-04-14T15:39:46.911Z,2.90
2023-04-14T15:42:13.960Z,3.10
2023-04-14T15:44:41.087Z,2.07
2023-04-14T15:47:09.267Z,2.50
2023-04-14T15:49:36.268Z,2.53
2023-04-14T15:52:03.202Z,3.37
2023-04-14T15:54:30.109Z,2.33
2023-04-14T15:56:57.550Z,3.70
2023-04-14T15:59:25.074Z,2.10
2023-04-14T16:01:53.531Z,3.03
2023-04-14T16:04:22.120Z,3.13
2023-04-14T16:06:49.221Z,2.30
2023-04-14T16:09:16.138Z,4.93
2023-04-14T16:11:43.073Z,3.97
2023-04-14T16:14:09.937Z,2.77
2023-04-14T16:16:38.409Z,3.60
2023-04-14T16:19:05.333Z,4.83
2023-04-14T16:21:33.558Z,5.03
2023-04-14T16:24:01.172Z,4.00
2023-04-14T16:26:28.755Z,3.33
2023-04-14T16:28:55.627Z,3.27
2023-04-14T16:31:23.487Z,6.27
2023-04-14T16:33:50.501Z,5.20
2023-04-14T16:36:19.086Z,3.03
2023-04-14T16:38:49.087Z,2.50
2023-04-14T16:41:15.989Z,3.43
2023-04-14T16:43:42.929Z,2.90
2023-04-14T16:46:09.828Z,2.83
2023-04-14T16:48:37.108Z,4.53
2023-04-14T16:51:04.853Z,3.43
2023-04-14T16:53:31.764Z,4.87
2023-04-14T16:56:04.330Z,1.90
2023-04-14T16:58:33.358Z,2.20
2023-04-14T17:01:00.575Z,2.90
2023-04-14T17:03:27.735Z,3.77
2023-04-14T17:05:55.033Z,3.47
2023-04-14T17:08:22.028Z,1.73
2023-04-14T17:10:49.104Z,3.67
2023-04-14T17:13:17.611Z,3.30
2023-04-14T17:15:44.529Z,3.50
2023-04-14T17:18:12.623Z,2.17
2023-04-14T17:20:40.925Z,1.93
2023-04-14T17:23:08.514Z,2.77
2023-04-14T17:25:40.054Z,6.43
2023-04-14T17:28:07.167Z,4.50
2023-04-14T17:30:37.254Z,3.33
2023-04-14T17:33:06.259Z,6.63
2023-04-14T17:35:35.247Z,3.43
2023-04-14T17:38:02.406Z,3.33
2023-04-14T17:40:29.682Z,3.97
2023-04-14T17:42:56.837Z,2.20
2023-04-14T17:45:23.893Z,3.50
2023-04-14T17:47:53.624Z,2.77
2023-04-14T17:50:21.068Z,4.07
2023-04-14T17:52:48.969Z,4.80
2023-04-14T17:55:16.331Z,3.73
2023-04-14T17:57:43.366Z,3.87
2023-04-14T18:00:11.287Z,4.20
2023-04-14T18:02:41.346Z,5.47
2023-04-14T18:05:11.346Z,5.07
2023-04-14T18:07:38.413Z,3.40
2023-04-14T18:10:07.964Z,5.63
2023-04-14T18:12:34.915Z,4.30
2023-04-14T18:15:01.900Z,4.47
2023-04-14T18:17:29.103Z,4.27
2023-04-14T18:19:58.767Z,3.07
2023-04-14T18:22:27.410Z,2.27
2023-04-14T18:24:54.346Z,5.37
2023-04-14T18:29:52.919Z,5.80
2023-04-14T18:32:19.991Z,5.73
2023-04-14T18:34:47.016Z,5.07
2023-04-14T18:37:15.607Z,4.70
2023-04-14T18:39:45.487Z,4.87
2023-04-14T18:42:12.449Z,5.87
2023-04-14T18:44:39.309Z,4.20
2023-04-14T18:47:06.261Z,4.70
2023-04-14T18:49:33.251Z,4.73
2023-04-14T18:52:00.432Z,5.33
2023-04-14T18:54:27.392Z,6.10
2023-04-14T18:56:55.590Z,4.37
2023-04-14T18:59:23.473Z,4.13
2023-04-14T19:01:50.960Z,4.30
2023-04-14T19:04:17.930Z,5.43
2023-04-14T19:06:47.352Z,5.90
2023-04-14T19:09:14.264Z,9.10
2023-04-14T19:11:41.390Z,7.30
2023-04-14T19:14:09.663Z,7.33
2023-04-14T19:16:36.691Z,6.33
2023-04-14T19:19:04.117Z,8.60
2023-04-14T19:21:31.884Z,6.73
2023-04-14T19:23:59.149Z,7.20
2023-04-14T19:26:26.072Z,6.53
2023-04-14T19:28:53.832Z,7.53
2023-04-14T19:31:22.100Z,6.53
2023-04-14T19:33:49.356Z,8.07
2023-04-14T19:36:17.228Z,7.30
2023-04-14T19:38:44.273Z,8.90
2023-04-14T19:41:11.403Z,6.80
2023-04-14T19:43:38.358Z,9.33
2023-04-14T19:46:05.461Z,7.43
2023-04-14T19:48:34.404Z,9.20
2023-04-14T19:51:02.316Z,8.73
2023-04-14T19:53:32.614Z,8.07
2023-04-14T19:56:00.175Z,7.40
2023-04-14T19:58:28.523Z,6.90
2023-04-14T20:00:57.307Z,7.17
2023-04-14T20:03:25.084Z,8.70
2023-04-14T20:05:54.799Z,6.87
2023-04-14T20:08:22.669Z,7.90
2023-04-14T20:10:51.910Z,8.43
2023-04-14T20:13:19.728Z,7.03
2023-04-14T20:15:46.844Z,7.87
2023-04-14T20:18:14.664Z,6.00
2023-04-14T20:20:41.725Z,5.23
2023-04-14T20:23:10.072Z,4.33
2023-04-14T20:25:37.258Z,6.07
2023-04-14T20:28:04.365Z,6.27
2023-04-14T20:30:34.422Z,4.67
2023-04-14T20:33:05.712Z,7.43
2023-04-14T20:35:36.109Z,9.00
2023-04-14T20:38:03.092Z,9.33
2023-04-14T20:40:31.284Z,8.40
2023-04-14T20:42:58.117Z,5.67
2023-04-14T20:45:25.262Z,6.57
2023-04-14T20:47:52.226Z,7.60
2023-04-14T20:50:19.225Z,6.63
2023-04-14T20:52:46.472Z,7.60
2023-04-14T20:55:13.653Z,5.53
2023-04-14T20:57:42.110Z,6.63
2023-04-14T21:00:10.281Z,6.63
2023-04-14T21:02:37.553Z,9.17
2023-04-14T21:05:05.864Z,10.10
2023-04-14T21:07:32.858Z,7.83
2023-04-14T21:09:59.798Z,6.87
2023-04-14T21:12:35.387Z,8.30
2023-04-14T21:15:47.890Z,8.40
2023-04-14T21:17:52.641Z,7.67
2023-04-14T21:20:20.060Z,7.93
2023-04-14T21:22:46.964Z,8.03
2023-04-14T21:25:14.199Z,8.07
2023-04-14T21:27:41.511Z,7.80
2023-04-14T21:30:11.104Z,9.10
2023-04-14T21:32:39.329Z,9.67
2023-04-14T21:35:08.528Z,7.40
2023-04-14T21:37:35.700Z,6.10
2023-04-14T21:40:06.288Z,6.27
2023-04-14T21:42:33.144Z,6.07
2023-04-14T21:45:00.958Z,6.77
2023-04-14T21:47:29.205Z,5.73
2023-04-14T21:49:56.465Z,5.43
2023-04-14T21:52:23.349Z,7.07
2023-04-14T21:54:50.486Z,5.10
2023-04-14T21:57:17.424Z,5.93
2023-04-14T22:00:07.422Z,8.10
2023-04-14T22:02:36.369Z,5.77
2023-04-14T22:05:04.638Z,6.53
2023-04-14T22:07:31.699Z,7.77
2023-04-14T22:09:58.592Z,5.43
2023-04-14T22:12:26.397Z,6.47
2023-04-14T22:14:53.779Z,6.53
2023-04-14T22:17:20.698Z,5.73
2023-04-14T22:19:48.871Z,5.90
2023-04-14T22:22:16.011Z,5.70
2023-04-14T22:24:43.632Z,5.90
2023-04-14T22:27:10.576Z,6.90
2023-04-14T22:29:37.427Z,6.93
2023-04-14T22:32:04.924Z,4.40
2023-04-14T22:34:31.891Z,6.03
2023-04-14T22:37:00.185Z,5.43
2023-04-14T22:39:27.287Z,5.63
2023-04-14T22:41:54.197Z,4.00
2023-04-14T22:44:21.537Z,3.50
2023-04-14T22:46:48.370Z,5.63
2023-04-14T22:49:15.305Z,4.07
2023-04-14T22:51:42.153Z,5.57
2023-04-14T22:54:10.411Z,5.87
2023-04-14T22:56:37.314Z,6.23
2023-04-14T22:59:04.469Z,4.80
2023-04-14T23:01:31.619Z,5.73
2023-04-14T23:03:58.585Z,5.83
